Ferry Kyoto2 — JI3701 — position and weather

sailwx.info

Track history (hours):
 
Tides and Currents Weather Stations Pressure Air Temp Water Temp Dewpoint Dewpoint Depression Visibility Wind Speed Wind Dir Waves Ship Positions

Ferry Kyoto2

Last reported at 2015-Mar-03 23:28 UTC. Time now 2015-Mar-04 00:16 UTC.
Position N 34°37' E 135°26'.

Length 167 m; draft 6 m.

Type: Passenger vessel. MMSI: 431301641.

Date/timePositionNaut miles runAvg speedWind from/ knotsBaromVisibWave heightAir tempDewpointWater temp
2015-Mar-03 23:28N 34°37' E 135°26'1415.2
2015-Mar-03 22:33N 34°33' E 135°10'1716.5
2015-Mar-03 21:33N 34°33' E 134°49'1 0.0
2015-Mar-02 12:31N 34°35' E 134°49'2121.3
2015-Mar-02 11:33N 34°36' E 135°14'10 9.2
2015-Mar-02 10:29N 34°37' E 135°26'0 0.0
2015-Mar-02 09:29N 34°37' E 135°26'0 0.0
2015-Mar-02 08:29N 34°37' E 135°26'0 0.0
2015-Mar-02 07:29N 34°37' E 135°26'0 0.0
2015-Mar-02 06:23N 34°37' E 135°26'0 0.0
2015-Mar-02 05:29N 34°37' E 135°26'0 0.0
2015-Mar-02 04:29N 34°37' E 135°26'0 0.0
2015-Mar-02 03:23N 34°37' E 135°26'0 0.0
2015-Mar-02 02:29N 34°37' E 135°26'0 0.0
2015-Mar-02 01:23N 34°37' E 135°26'0 0.0
2015-Mar-02 00:29N 34°37' E 135°26'0 0.0
2015-Mar-01 23:33N 34°37' E 135°26'1413.8
2015-Mar-01 22:33N 34°33' E 135°10'1212.2
2015-Mar-01 21:33N 34°35' E 134°55'5 0.1
2015-Feb-28 12:30N 34°34' E 134°50'1920.1
2015-Feb-28 11:33N 34°36' E 135°13'1110.3
2015-Feb-28 10:31N 34°37' E 135°26'0 0.0
2015-Feb-28 09:31N 34°37' E 135°26'0 0.0
2015-Feb-28 08:31N 34°37' E 135°26'0 0.0
2015-Feb-28 07:31N 34°37' E 135°26'0 0.0
2015-Feb-28 06:25N 34°37' E 135°26'0 0.0
2015-Feb-28 05:31N 34°37' E 135°26'0 0.0
2015-Feb-28 04:25N 34°37' E 135°26'0 0.0
2015-Feb-28 03:25N 34°37' E 135°26'0 0.0
2015-Feb-28 02:25N 34°37' E 135°26'0 0.0
2015-Feb-28 01:31N 34°37' E 135°26'0 0.0
2015-Feb-28 00:31N 34°37' E 135°26'0 0.0
2015-Feb-27 23:31N 34°37' E 135°26'1212.3
2015-Feb-27 22:33N 34°35' E 135°12'1817.7
2015-Feb-27 21:33N 34°33' E 134°50'1 0.0
2015-Feb-26 12:33N 34°35' E 134°51'1919.4
2015-Feb-26 11:33N 34°36' E 135°14'10 9.7
2015-Feb-26 10:33N 34°37' E 135°26'0 0.0
2015-Feb-26 09:33N 34°37' E 135°26'0 0.0
2015-Feb-26 08:33N 34°37' E 135°26'0 0.0
2015-Feb-26 07:33N 34°37' E 135°26'0 0.0
2015-Feb-26 06:33N 34°37' E 135°26'0 0.0
2015-Feb-26 05:33N 34°37' E 135°26'0 0.0
2015-Feb-26 04:27N 34°37' E 135°26'0 0.0
2015-Feb-26 03:33N 34°37' E 135°26'0 0.0
2015-Feb-26 02:33N 34°37' E 135°26'0 0.0
2015-Feb-26 01:18N 34°37' E 135°26'0 0.0
2015-Feb-26 00:30N 34°37' E 135°26'0 0.0
2015-Feb-25 23:30N 34°37' E 135°26'1212.5
2015-Feb-25 22:33N 34°35' E 135°12'2019.1
2015-Feb-25 21:29N 34°33' E 134°47'3 0.1
2015-Feb-24 12:33N 34°35' E 134°50'2120.5
2015-Feb-24 11:33N 34°36' E 135°14'9 9.4
2015-Feb-24 10:33N 34°37' E 135°26'0 0.0
2015-Feb-24 09:33N 34°37' E 135°26'0 0.0
2015-Feb-24 08:27N 34°37' E 135°26'0 0.0
2015-Feb-24 07:27N 34°37' E 135°26'0 0.0
2015-Feb-24 06:33N 34°37' E 135°26'0 0.0
2015-Feb-24 05:33N 34°37' E 135°26'0 0.0
2015-Feb-24 04:33N 34°37' E 135°26'0 0.0
2015-Feb-24 03:33N 34°37' E 135°26'0 0.0
2015-Feb-24 02:33N 34°37' E 135°26'0 0.0
2015-Feb-24 01:33N 34°37' E 135°26'0 0.0
2015-Feb-24 00:33N 34°37' E 135°26'0 0.0
2015-Feb-23 23:33N 34°37' E 135°26'1010.2
2015-Feb-23 22:33N 34°35' E 135°14'2019.7
2015-Feb-23 21:33N 34°34' E 134°50'2 0.1
2015-Feb-22 12:32N 34°34' E 134°48'2121.3
2015-Feb-22 11:33N 34°36' E 135°13'1010.1
2015-Feb-22 10:31N 34°37' E 135°26'0 0.0
2015-Feb-22 09:31N 34°37' E 135°26'0 0.0
2015-Feb-22 08:31N 34°37' E 135°26'0 0.0
2015-Feb-22 07:25N 34°37' E 135°26'0 0.0
2015-Feb-22 06:25N 34°37' E 135°26'0 0.0
2015-Feb-22 05:31N 34°37' E 135°26'0 0.0
2015-Feb-22 04:31N 34°37' E 135°26'0 0.0
2015-Feb-22 03:31N 34°37' E 135°26'0 0.0
2015-Feb-22 02:25N 34°37' E 135°26'0 0.0
2015-Feb-22 01:31N 34°37' E 135°26'0 0.0
2015-Feb-22 00:31N 34°37' E 135°26'0 0.0
2015-Feb-21 23:31N 34°37' E 135°26'  
Track history (hours):
 
Tides and Currents Weather Stations Pressure Air Temp Water Temp Dewpoint Dewpoint Depression Visibility Wind Speed Wind Dir Waves Ship Positions

Ferry Kyoto2

Last reported at 2015-Mar-03 23:28 UTC. Time now 2015-Mar-04 00:16 UTC.
Position N 34°37' E 135°26'.

Length 167 m; draft 6 m.

Type: Passenger vessel. MMSI: 431301641.

Date/timePositionNaut miles runAvg speedWind from/ knotsBaromVisibWave heightAir tempDewpointWater temp
2015-Mar-03 23:28N 34°37' E 135°26'1415.2
2015-Mar-03 22:33N 34°33' E 135°10'1716.5
2015-Mar-03 21:33N 34°33' E 134°49'1 0.0
2015-Mar-02 12:31N 34°35' E 134°49'2121.3
2015-Mar-02 11:33N 34°36' E 135°14'10 9.2
2015-Mar-02 10:29N 34°37' E 135°26'0 0.0
2015-Mar-02 09:29N 34°37' E 135°26'0 0.0
2015-Mar-02 08:29N 34°37' E 135°26'0 0.0
2015-Mar-02 07:29N 34°37' E 135°26'0 0.0
2015-Mar-02 06:23N 34°37' E 135°26'0 0.0
2015-Mar-02 05:29N 34°37' E 135°26'0 0.0
2015-Mar-02 04:29N 34°37' E 135°26'0 0.0
2015-Mar-02 03:23N 34°37' E 135°26'0 0.0
2015-Mar-02 02:29N 34°37' E 135°26'0 0.0
2015-Mar-02 01:23N 34°37' E 135°26'0 0.0
2015-Mar-02 00:29N 34°37' E 135°26'0 0.0
2015-Mar-01 23:33N 34°37' E 135°26'1413.8
2015-Mar-01 22:33N 34°33' E 135°10'1212.2
2015-Mar-01 21:33N 34°35' E 134°55'5 0.1
2015-Feb-28 12:30N 34°34' E 134°50'1920.1
2015-Feb-28 11:33N 34°36' E 135°13'1110.3
2015-Feb-28 10:31N 34°37' E 135°26'0 0.0
2015-Feb-28 09:31N 34°37' E 135°26'0 0.0
2015-Feb-28 08:31N 34°37' E 135°26'0 0.0
2015-Feb-28 07:31N 34°37' E 135°26'0 0.0
2015-Feb-28 06:25N 34°37' E 135°26'0 0.0
2015-Feb-28 05:31N 34°37' E 135°26'0 0.0
2015-Feb-28 04:25N 34°37' E 135°26'0 0.0
2015-Feb-28 03:25N 34°37' E 135°26'0 0.0
2015-Feb-28 02:25N 34°37' E 135°26'0 0.0
2015-Feb-28 01:31N 34°37' E 135°26'0 0.0
2015-Feb-28 00:31N 34°37' E 135°26'0 0.0
2015-Feb-27 23:31N 34°37' E 135°26'1212.3
2015-Feb-27 22:33N 34°35' E 135°12'1817.7
2015-Feb-27 21:33N 34°33' E 134°50'1 0.0
2015-Feb-26 12:33N 34°35' E 134°51'1919.4
2015-Feb-26 11:33N 34°36' E 135°14'10 9.7
2015-Feb-26 10:33N 34°37' E 135°26'0 0.0
2015-Feb-26 09:33N 34°37' E 135°26'0 0.0
2015-Feb-26 08:33N 34°37' E 135°26'0 0.0
2015-Feb-26 07:33N 34°37' E 135°26'0 0.0
2015-Feb-26 06:33N 34°37' E 135°26'0 0.0
2015-Feb-26 05:33N 34°37' E 135°26'0 0.0
2015-Feb-26 04:27N 34°37' E 135°26'0 0.0
2015-Feb-26 03:33N 34°37' E 135°26'0 0.0
2015-Feb-26 02:33N 34°37' E 135°26'0 0.0
2015-Feb-26 01:18N 34°37' E 135°26'0 0.0
2015-Feb-26 00:30N 34°37' E 135°26'0 0.0
2015-Feb-25 23:30N 34°37' E 135°26'1212.5
2015-Feb-25 22:33N 34°35' E 135°12'2019.1
2015-Feb-25 21:29N 34°33' E 134°47'3 0.1
2015-Feb-24 12:33N 34°35' E 134°50'2120.5
2015-Feb-24 11:33N 34°36' E 135°14'9 9.4
2015-Feb-24 10:33N 34°37' E 135°26'0 0.0
2015-Feb-24 09:33N 34°37' E 135°26'0 0.0
2015-Feb-24 08:27N 34°37' E 135°26'0 0.0
2015-Feb-24 07:27N 34°37' E 135°26'0 0.0
2015-Feb-24 06:33N 34°37' E 135°26'0 0.0
2015-Feb-24 05:33N 34°37' E 135°26'0 0.0
2015-Feb-24 04:33N 34°37' E 135°26'0 0.0
2015-Feb-24 03:33N 34°37' E 135°26'0 0.0
2015-Feb-24 02:33N 34°37' E 135°26'0 0.0
2015-Feb-24 01:33N 34°37' E 135°26'0 0.0
2015-Feb-24 00:33N 34°37' E 135°26'0 0.0
2015-Feb-23 23:33N 34°37' E 135°26'1010.2
2015-Feb-23 22:33N 34°35' E 135°14'2019.7
2015-Feb-23 21:33N 34°34' E 134°50'2 0.1
2015-Feb-22 12:32N 34°34' E 134°48'2121.3
2015-Feb-22 11:33N 34°36' E 135°13'1010.1
2015-Feb-22 10:31N 34°37' E 135°26'0 0.0
2015-Feb-22 09:31N 34°37' E 135°26'0 0.0
2015-Feb-22 08:31N 34°37' E 135°26'0 0.0
2015-Feb-22 07:25N 34°37' E 135°26'0 0.0
2015-Feb-22 06:25N 34°37' E 135°26'0 0.0
2015-Feb-22 05:31N 34°37' E 135°26'0 0.0
2015-Feb-22 04:31N 34°37' E 135°26'0 0.0
2015-Feb-22 03:31N 34°37' E 135°26'0 0.0
2015-Feb-22 02:25N 34°37' E 135°26'0 0.0
2015-Feb-22 01:31N 34°37' E 135°26'0 0.0
2015-Feb-22 00:31N 34°37' E 135°26'0 0.0
2015-Feb-21 23:31N 34°37' E 135°26'  

Dump ship's entire track history